createdAt,value
2023-05-10T00:00:05.819Z,6.97
2023-05-10T00:02:49.864Z,6.15
2023-05-10T00:05:36.776Z,6.80
2023-05-10T00:08:16.863Z,6.72
2023-05-10T00:11:03.738Z,6.18
2023-05-10T00:13:50.723Z,5.93
2023-05-10T00:16:31.334Z,5.80
2023-05-10T00:19:17.718Z,6.72
2023-05-10T00:22:04.727Z,6.20
2023-05-10T00:24:51.688Z,6.38
2023-05-10T00:27:32.062Z,6.63
2023-05-10T00:30:19.687Z,6.35
2023-05-10T00:33:00.098Z,5.82
2023-05-10T00:35:46.657Z,5.65
2023-05-10T00:38:27.148Z,6.00
2023-05-10T00:41:13.710Z,5.63
2023-05-10T00:44:00.704Z,6.45
2023-05-10T00:46:40.731Z,6.45
2023-05-10T00:49:28.690Z,6.10
2023-05-10T00:52:08.754Z,6.53
2023-05-10T00:54:55.653Z,6.15
2023-05-10T00:57:35.744Z,6.60
2023-05-10T01:00:25.696Z,6.85
2023-05-10T01:03:05.765Z,5.72
2023-05-10T01:05:52.638Z,6.38
2023-05-10T01:08:41.638Z,6.85
2023-05-10T01:11:22.314Z,6.70
2023-05-10T01:14:11.632Z,6.63
2023-05-10T01:16:54.272Z,7.18
2023-05-10T01:19:42.623Z,6.15
2023-05-10T01:22:51.225Z,6.85
2023-05-10T01:25:57.609Z,6.85
2023-05-10T01:29:05.475Z,6.65
2023-05-10T01:32:11.607Z,6.72
2023-05-10T01:34:56.782Z,6.65
2023-05-10T01:37:50.609Z,7.32
2023-05-10T01:40:50.593Z,7.57
2023-05-10T01:43:42.630Z,8.25
2023-05-10T01:46:27.705Z,7.28
2023-05-10T01:49:27.591Z,9.00
2023-05-10T01:52:22.626Z,7.63
2023-05-10T01:55:13.571Z,7.50
2023-05-10T01:58:05.616Z,8.20
2023-05-10T02:00:48.536Z,8.25
2023-05-10T02:03:37.569Z,9.13
2023-05-10T02:06:21.530Z,9.15
2023-05-10T02:09:09.596Z,9.27
2023-05-10T02:11:51.339Z,8.63
2023-05-10T02:14:41.548Z,9.50
2023-05-10T02:17:29.513Z,9.07
2023-05-10T02:20:11.730Z,10.07
2023-05-10T02:23:01.528Z,9.98
2023-05-10T02:25:44.785Z,10.07
2023-05-10T02:28:33.587Z,9.98
2023-05-10T02:31:14.632Z,10.32
2023-05-10T02:34:02.485Z,9.48
2023-05-10T02:36:43.596Z,9.68
2023-05-10T02:39:32.517Z,9.00
2023-05-10T02:42:31.547Z,9.82
2023-05-10T02:45:15.686Z,9.63
2023-05-10T02:48:03.631Z,9.93
2023-05-10T02:50:52.399Z,8.93
2023-05-10T02:53:46.521Z,8.65
2023-05-10T02:56:35.518Z,7.57
2023-05-10T02:59:22.471Z,9.35
2023-05-10T03:02:09.669Z,9.40
2023-05-10T03:04:49.583Z,9.23
2023-05-10T03:07:36.544Z,7.80
2023-05-10T03:10:17.746Z,8.38
2023-05-10T03:13:16.532Z,8.32
2023-05-10T03:16:13.521Z,8.45
2023-05-10T03:19:04.516Z,6.78
2023-05-10T03:21:56.466Z,7.22
2023-05-10T03:24:48.422Z,6.93
2023-05-10T03:27:38.439Z,7.22
2023-05-10T03:30:20.622Z,7.25
2023-05-10T03:33:07.481Z,7.60
2023-05-10T03:35:57.422Z,7.38
2023-05-10T03:38:37.573Z,7.28
2023-05-10T03:41:24.464Z,7.18
2023-05-10T03:44:04.495Z,6.38
2023-05-10T03:46:51.569Z,6.57
2023-05-10T03:49:31.569Z,6.60
2023-05-10T03:52:18.404Z,7.30
2023-05-10T03:54:58.536Z,5.47
2023-05-10T03:57:45.399Z,4.70
2023-05-10T04:00:25.477Z,5.13
2023-05-10T04:03:13.560Z,5.65
2023-05-10T04:05:53.538Z,5.53
2023-05-10T04:08:40.345Z,5.60
2023-05-10T04:11:22.995Z,5.47
2023-05-10T04:14:09.375Z,6.03
2023-05-10T04:16:49.544Z,6.25
2023-05-10T04:19:37.364Z,6.50
2023-05-10T04:22:17.525Z,8.40
2023-05-10T04:25:04.390Z,7.45
2023-05-10T04:27:44.560Z,8.05
2023-05-10T04:30:31.496Z,9.05
2023-05-10T04:33:11.419Z,8.70
2023-05-10T04:35:58.348Z,9.10
2023-05-10T04:38:45.345Z,9.93
2023-05-10T04:41:39.391Z,9.32
2023-05-10T04:44:19.721Z,8.40
2023-05-10T04:47:06.351Z,8.95
2023-05-10T04:49:53.351Z,9.27
2023-05-10T04:52:33.463Z,9.15
2023-05-10T04:55:21.358Z,9.30
2023-05-10T04:58:01.687Z,8.98
2023-05-10T05:00:48.310Z,10.23
2023-05-10T05:03:28.592Z,9.90
2023-05-10T05:06:15.358Z,10.20
2023-05-10T05:08:55.448Z,9.73
2023-05-10T05:11:42.350Z,10.35
2023-05-10T05:14:22.389Z,10.13
2023-05-10T05:17:09.348Z,10.93
2023-05-10T05:19:49.461Z,10.75
2023-05-10T05:22:36.284Z,11.02
2023-05-10T05:25:23.346Z,10.35
2023-05-10T05:28:03.722Z,11.30
2023-05-10T05:30:50.328Z,10.52
2023-05-10T05:33:30.782Z,10.55
2023-05-10T05:36:18.302Z,10.80
2023-05-10T05:38:58.798Z,10.57
2023-05-10T05:41:45.246Z,11.13
2023-05-10T05:44:25.760Z,11.25
2023-05-10T05:47:12.285Z,11.05
2023-05-10T05:49:52.664Z,11.18
2023-05-10T05:52:39.308Z,10.68
2023-05-10T05:55:19.788Z,11.25
2023-05-10T05:58:06.290Z,10.93
2023-05-10T06:00:46.607Z,11.32
2023-05-10T06:03:33.379Z,11.30
2023-05-10T06:06:13.718Z,11.52
2023-05-10T06:09:00.254Z,10.77
2023-05-10T06:11:47.729Z,11.10
2023-05-10T06:14:30.205Z,11.65
2023-05-10T06:17:10.636Z,11.55
2023-05-10T06:19:57.310Z,11.50
2023-05-10T06:22:37.645Z,12.25
2023-05-10T06:25:25.248Z,12.43
2023-05-10T06:28:05.624Z,12.75
2023-05-10T06:30:52.215Z,13.15
2023-05-10T06:33:32.667Z,12.80
2023-05-10T06:36:19.215Z,13.10
2023-05-10T06:38:59.676Z,12.93
2023-05-10T06:41:46.186Z,13.73
2023-05-10T06:44:26.611Z,13.27
2023-05-10T06:47:13.256Z,13.57
2023-05-10T06:49:53.629Z,14.18
2023-05-10T06:52:40.193Z,13.35
2023-05-10T06:55:20.640Z,12.98
2023-05-10T06:58:07.209Z,14.13
2023-05-10T07:00:48.462Z,13.88
2023-05-10T07:03:35.319Z,13.00
2023-05-10T07:06:29.347Z,13.60
2023-05-10T07:09:19.223Z,13.80
2023-05-10T07:12:07.266Z,13.70
2023-05-10T07:14:55.212Z,13.77
2023-05-10T07:17:35.926Z,13.80
2023-05-10T07:20:23.145Z,13.50
2023-05-10T07:23:10.226Z,13.00
2023-05-10T07:40:34.694Z,12.07
2023-05-10T07:43:15.103Z,11.82
2023-05-10T07:46:01.747Z,12.98
2023-05-10T07:48:42.411Z,11.98
2023-05-10T07:51:29.871Z,12.25
2023-05-10T07:54:10.185Z,12.07
2023-05-10T07:56:56.705Z,12.23
2023-05-10T07:59:37.490Z,12.05
2023-05-10T08:02:24.789Z,12.52
2023-05-10T08:05:06.498Z,13.80
2023-05-10T08:07:53.616Z,14.32
2023-05-10T08:10:40.687Z,15.60
2023-05-10T08:13:27.707Z,14.88
2023-05-10T08:16:08.408Z,14.07
2023-05-10T08:18:55.705Z,13.55
2023-05-10T08:21:36.854Z,13.80
2023-05-10T08:24:24.683Z,13.25
2023-05-10T08:27:14.674Z,13.55
2023-05-10T08:29:54.786Z,13.65
2023-05-10T08:32:42.652Z,14.10
2023-05-10T08:35:30.658Z,14.20
2023-05-10T08:38:17.612Z,13.10
2023-05-10T08:41:01.905Z,12.52
2023-05-10T08:43:53.606Z,13.00
2023-05-10T08:46:35.915Z,13.18
2023-05-10T08:49:27.636Z,13.60
2023-05-10T08:52:11.763Z,13.90
2023-05-10T08:54:58.653Z,13.23
2023-05-10T08:57:38.777Z,13.02
2023-05-10T09:00:26.617Z,13.50
2023-05-10T09:03:08.216Z,12.32
2023-05-10T09:05:56.584Z,13.10
2023-05-10T09:08:36.746Z,12.73
2023-05-10T09:11:23.568Z,12.50
2023-05-10T09:14:10.645Z,11.70
2023-05-10T09:16:50.990Z,12.32
2023-05-10T09:19:37.637Z,12.43
2023-05-10T09:22:25.615Z,12.95
2023-05-10T09:25:26.584Z,13.18
2023-05-10T09:28:11.001Z,12.95
2023-05-10T09:30:57.564Z,13.88
2023-05-10T09:33:45.942Z,13.70
2023-05-10T09:36:32.612Z,14.10
2023-05-10T09:39:19.569Z,14.35
2023-05-10T09:42:00.149Z,14.40
2023-05-10T09:44:48.535Z,14.30
2023-05-10T09:47:35.618Z,13.82
2023-05-10T09:50:16.023Z,14.13
2023-05-10T09:53:07.745Z,14.07
2023-05-10T09:55:47.971Z,14.25
2023-05-10T09:58:34.553Z,14.63
2023-05-10T10:01:15.141Z,14.70
2023-05-10T10:04:01.610Z,15.02
2023-05-10T10:06:42.387Z,14.10
2023-05-10T10:09:29.551Z,14.50
2023-05-10T10:12:09.936Z,15.13
2023-05-10T10:14:57.515Z,14.25
2023-05-10T10:17:39.733Z,14.27
2023-05-10T10:20:27.498Z,14.32
2023-05-10T10:23:09.331Z,14.40
2023-05-10T10:25:57.470Z,14.57
2023-05-10T10:28:48.421Z,15.10
2023-05-10T10:31:54.596Z,14.50
2023-05-10T10:34:35.364Z,14.35
2023-05-10T10:37:22.484Z,14.63
2023-05-10T10:40:26.800Z,14.35
2023-05-10T10:43:39.474Z,13.80
2023-05-10T10:46:28.508Z,14.02
2023-05-10T10:49:18.295Z,14.02
2023-05-10T10:52:28.482Z,14.38
2023-05-10T10:55:32.493Z,13.93
2023-05-10T10:58:30.750Z,14.20
2023-05-10T11:01:25.454Z,13.82
2023-05-10T11:04:05.823Z,14.43
2023-05-10T11:06:52.445Z,13.70
2023-05-10T11:09:41.195Z,13.70
2023-05-10T11:12:28.529Z,13.65
2023-05-10T11:15:10.714Z,13.77
2023-05-10T11:17:59.484Z,13.88
2023-05-10T11:20:47.473Z,13.80
2023-05-10T11:23:27.491Z,14.25
2023-05-10T11:26:18.420Z,15.15
2023-05-10T11:29:02.854Z,14.43
2023-05-10T11:31:51.480Z,13.85
2023-05-10T11:34:36.573Z,14.00
2023-05-10T11:37:23.575Z,14.57
2023-05-10T11:40:10.830Z,14.70
2023-05-10T11:42:50.387Z,13.70
2023-05-10T11:45:33.736Z,13.68
2023-05-10T11:48:20.415Z,14.38
2023-05-10T11:51:03.100Z,13.93
2023-05-10T11:53:49.385Z,13.88
2023-05-10T11:56:36.392Z,13.15
2023-05-10T11:59:16.496Z,13.13
2023-05-10T12:02:03.371Z,13.30
2023-05-10T12:04:43.578Z,12.95
2023-05-10T12:07:30.420Z,13.50
2023-05-10T12:10:27.445Z,13.55
2023-05-10T12:13:20.351Z,13.38
2023-05-10T12:16:00.891Z,14.25
2023-05-10T12:18:49.383Z,14.60
2023-05-10T12:21:36.456Z,14.05
2023-05-10T12:24:26.399Z,13.35
2023-05-10T12:27:15.342Z,13.27
2023-05-10T12:29:55.805Z,15.20
2023-05-10T12:32:56.320Z,13.63
2023-05-10T12:35:57.391Z,13.18
2023-05-10T12:38:50.368Z,13.82
2023-05-10T12:41:30.820Z,13.23
2023-05-10T12:44:17.376Z,12.80
2023-05-10T12:46:57.951Z,13.77
2023-05-10T12:49:44.361Z,13.18
2023-05-10T12:52:27.123Z,13.13
2023-05-10T12:55:14.376Z,12.82
2023-05-10T12:57:54.687Z,13.00
2023-05-10T13:00:41.309Z,13.95
2023-05-10T13:03:21.758Z,13.10
2023-05-10T13:06:08.323Z,13.27
2023-05-10T13:08:48.776Z,13.48
2023-05-10T13:11:35.351Z,13.10
2023-05-10T13:14:22.271Z,13.93
2023-05-10T13:17:02.517Z,13.15
2023-05-10T13:19:49.275Z,13.27
2023-05-10T13:22:39.611Z,12.80
2023-05-10T13:25:27.380Z,13.65
2023-05-10T13:28:07.398Z,13.05
2023-05-10T13:30:54.269Z,13.05
2023-05-10T13:33:41.295Z,12.77
2023-05-10T13:36:28.305Z,12.43
2023-05-10T13:39:08.329Z,13.82
2023-05-10T13:41:56.270Z,12.70
2023-05-10T13:44:37.191Z,12.43
2023-05-10T13:47:24.282Z,13.32
2023-05-10T13:50:04.777Z,12.43
2023-05-10T13:52:51.308Z,12.70
2023-05-10T13:56:35.240Z,12.90
2023-05-10T13:59:15.784Z,12.50
2023-05-10T14:02:02.301Z,12.77
2023-05-10T14:04:49.284Z,13.05
2023-05-10T14:07:29.390Z,12.45
2023-05-10T14:10:16.235Z,12.20
2023-05-10T14:12:58.502Z,13.25
2023-05-10T14:15:45.275Z,12.32
2023-05-10T14:18:25.338Z,13.13
2023-05-10T14:21:12.230Z,13.38
2023-05-10T14:23:52.346Z,13.73
2023-05-10T14:26:39.213Z,12.25
2023-05-10T14:29:19.364Z,12.63
2023-05-10T14:32:06.246Z,12.00
2023-05-10T14:34:46.344Z,12.30
2023-05-10T14:37:33.221Z,14.65
2023-05-10T14:40:20.298Z,13.20
2023-05-10T14:43:00.170Z,13.57
2023-05-10T14:45:47.268Z,12.95
2023-05-10T14:48:34.220Z,13.07
2023-05-10T14:51:14.707Z,13.32
2023-05-10T14:54:01.196Z,12.77
2023-05-10T14:56:42.601Z,12.57
2023-05-10T14:59:29.212Z,12.38
2023-05-10T15:02:10.545Z,12.45
2023-05-10T15:04:58.132Z,11.70
2023-05-10T15:07:38.506Z,12.30
2023-05-10T15:10:25.166Z,12.65
2023-05-10T15:13:12.186Z,12.80
2023-05-10T15:15:52.236Z,13.50
2023-05-10T15:18:39.263Z,12.02
2023-05-10T15:21:27.128Z,11.32
2023-05-10T15:24:07.587Z,11.23
2023-05-10T15:26:54.167Z,12.05
2023-05-10T15:29:35.291Z,11.93
2023-05-10T15:32:22.181Z,12.05
2023-05-10T15:35:03.571Z,11.45
2023-05-10T15:37:50.112Z,11.13
2023-05-10T15:40:30.590Z,11.07
2023-05-10T15:43:17.111Z,11.30
2023-05-10T15:45:57.586Z,10.70
2023-05-10T15:48:44.108Z,11.80
2023-05-10T15:51:24.462Z,11.63
2023-05-10T15:54:11.091Z,13.15
2023-05-10T15:56:51.475Z,10.65
2023-05-10T15:59:38.094Z,11.38
2023-05-10T16:02:19.419Z,11.30
2023-05-10T16:05:06.112Z,11.05
2023-05-10T16:07:46.935Z,11.55
2023-05-10T16:10:34.090Z,10.55
2023-05-10T16:13:22.080Z,10.52
2023-05-10T16:16:02.144Z,9.77
2023-05-10T16:18:49.261Z,9.85
2023-05-10T16:21:29.153Z,9.80
2023-05-10T16:24:16.110Z,10.38
2023-05-10T16:27:03.089Z,9.77
2023-05-10T16:29:50.135Z,10.20
2023-05-10T16:32:37.135Z,9.88
2023-05-10T16:35:17.552Z,9.45
2023-05-10T16:38:04.060Z,9.98
2023-05-10T16:40:51.177Z,9.32
2023-05-10T16:43:31.065Z,10.00
2023-05-10T16:46:19.064Z,11.52
2023-05-10T16:49:00.262Z,10.43
2023-05-10T16:51:48.210Z,9.45
2023-05-10T16:54:35.303Z,10.30
2023-05-10T16:57:15.464Z,11.52
2023-05-10T17:00:03.000Z,10.25
2023-05-10T17:02:43.520Z,9.63
2023-05-10T17:05:30.036Z,9.57
2023-05-10T17:08:10.666Z,10.45
2023-05-10T17:10:57.024Z,9.95
2023-05-10T17:13:38.894Z,9.48
2023-05-10T17:16:27.068Z,9.95
2023-05-10T17:19:08.522Z,12.98
2023-05-10T17:21:55.043Z,10.68
2023-05-10T17:24:35.418Z,9.60
2023-05-10T17:27:21.961Z,9.15
2023-05-10T17:30:02.431Z,9.25
2023-05-10T17:32:49.019Z,9.38
2023-05-10T17:35:31.506Z,10.07
2023-05-10T17:38:17.948Z,9.70
2023-05-10T17:41:11.966Z,18.02
2023-05-10T17:43:58.921Z,15.30
2023-05-10T17:46:39.069Z,9.32
2023-05-10T17:49:25.956Z,9.57
2023-05-10T17:52:06.080Z,9.13
2023-05-10T17:54:52.935Z,9.55
2023-05-10T17:57:33.435Z,10.32
2023-05-10T18:00:20.899Z,9.30
2023-05-10T18:03:01.437Z,8.93
2023-05-10T18:05:47.916Z,8.57
2023-05-10T18:08:34.902Z,8.52
2023-05-10T18:11:15.358Z,9.57
2023-05-10T18:14:01.973Z,8.95
2023-05-10T18:16:43.265Z,8.38
2023-05-10T18:19:31.890Z,8.50
2023-05-10T18:22:12.698Z,9.15
2023-05-10T18:24:59.884Z,7.53
2023-05-10T18:27:46.939Z,8.13
2023-05-10T18:30:27.004Z,9.10
2023-05-10T18:33:15.007Z,8.15
2023-05-10T18:36:01.881Z,9.40
2023-05-10T18:38:42.338Z,10.43
2023-05-10T18:41:28.915Z,8.35
2023-05-10T18:44:15.834Z,6.40
2023-05-10T18:47:02.869Z,7.38
2023-05-10T18:49:51.901Z,6.55
2023-05-10T18:52:38.837Z,7.00
2023-05-10T18:55:19.489Z,7.72
2023-05-10T18:58:06.879Z,7.47
2023-05-10T19:00:47.216Z,7.10
2023-05-10T19:03:34.864Z,8.23
2023-05-10T19:06:21.873Z,7.22
2023-05-10T19:09:08.815Z,6.47
2023-05-10T19:11:56.096Z,8.07
2023-05-10T19:14:35.840Z,7.10
2023-05-10T19:17:25.192Z,6.68
2023-05-10T19:20:05.613Z,6.93
2023-05-10T19:23:08.140Z,5.97
2023-05-10T19:25:50.011Z,6.25
2023-05-10T19:42:25.298Z,6.18
2023-05-10T19:45:06.222Z,6.80
2023-05-10T19:47:53.417Z,6.97
2023-05-10T19:50:33.916Z,6.72
2023-05-10T19:53:20.350Z,6.57
2023-05-10T19:56:13.281Z,6.13
2023-05-10T19:58:53.367Z,6.97
2023-05-10T20:01:40.418Z,6.65
2023-05-10T20:04:21.284Z,6.40
2023-05-10T20:07:08.273Z,6.38
2023-05-10T20:09:49.642Z,6.82
2023-05-10T20:12:36.304Z,8.73
2023-05-10T20:15:16.646Z,6.65
2023-05-10T20:18:03.363Z,6.50
2023-05-10T20:20:50.301Z,6.60
2023-05-10T20:23:37.275Z,6.38
2023-05-10T20:26:17.400Z,6.28
2023-05-10T20:29:04.245Z,6.15
2023-05-10T20:31:44.393Z,5.63
2023-05-10T20:34:31.234Z,6.60
2023-05-10T20:37:18.302Z,6.43
2023-05-10T20:40:12.265Z,6.13
2023-05-10T20:42:59.360Z,7.00
2023-05-10T20:45:39.274Z,6.57
2023-05-10T20:48:26.430Z,6.63
2023-05-10T20:51:08.293Z,6.00
2023-05-10T20:53:55.218Z,6.15
2023-05-10T20:56:42.217Z,6.15
2023-05-10T20:59:22.825Z,7.38
2023-05-10T21:02:10.187Z,6.43
2023-05-10T21:04:50.562Z,5.93
2023-05-10T21:07:39.202Z,6.22
2023-05-10T21:10:20.827Z,6.78
2023-05-10T21:13:08.157Z,6.10
2023-05-10T21:15:55.205Z,5.88
2023-05-10T21:18:36.069Z,6.68
2023-05-10T21:21:23.166Z,7.10
2023-05-10T21:24:10.228Z,6.35
2023-05-10T21:26:57.292Z,6.00
2023-05-10T21:29:37.237Z,6.00
2023-05-10T21:32:17.532Z,6.20
2023-05-10T21:35:04.144Z,6.20
2023-05-10T21:37:44.531Z,7.38
2023-05-10T21:40:31.108Z,6.10
2023-05-10T21:43:18.165Z,8.93
2023-05-10T21:46:05.294Z,6.90
2023-05-10T21:48:45.550Z,7.53
2023-05-10T21:51:32.160Z,7.55
2023-05-10T21:54:12.529Z,7.05
2023-05-10T21:56:59.198Z,7.55
2023-05-10T21:59:39.817Z,6.30
2023-05-10T22:02:26.207Z,6.82
2023-05-10T22:05:13.095Z,6.00
2023-05-10T22:08:00.136Z,6.28
2023-05-10T22:10:47.113Z,5.80
2023-05-10T22:13:27.206Z,5.68
2023-05-10T22:16:14.234Z,5.88
2023-05-10T22:19:01.134Z,6.45
2023-05-10T22:21:48.072Z,6.97
2023-05-10T22:24:28.204Z,5.28
2023-05-10T22:27:15.068Z,6.30
2023-05-10T22:29:55.160Z,5.60
2023-05-10T22:32:42.092Z,5.95
2023-05-10T22:35:29.083Z,5.80
2023-05-10T22:38:09.481Z,5.60
2023-05-10T22:40:56.061Z,5.22
2023-05-10T22:43:43.124Z,5.20
2023-05-10T22:46:23.041Z,5.43
2023-05-10T22:49:03.488Z,5.55
2023-05-10T22:51:50.015Z,5.82
2023-05-10T22:54:30.692Z,6.28
2023-05-10T22:57:17.064Z,5.70
2023-05-10T22:59:57.461Z,5.22
2023-05-10T23:02:45.028Z,5.15
2023-05-10T23:05:25.495Z,4.85
2023-05-10T23:08:12.047Z,5.18
2023-05-10T23:10:52.423Z,5.10
2023-05-10T23:13:39.017Z,5.30
2023-05-10T23:16:19.545Z,5.28
2023-05-10T23:19:06.137Z,5.18
2023-05-10T23:21:47.186Z,5.35
2023-05-10T23:24:34.050Z,4.90
2023-05-10T23:27:14.742Z,4.85
2023-05-10T23:30:02.997Z,5.05
2023-05-10T23:32:43.671Z,5.13
2023-05-10T23:35:31.021Z,5.93
2023-05-10T23:38:17.998Z,5.30
2023-05-10T23:40:58.102Z,5.07
2023-05-10T23:43:44.985Z,4.95
2023-05-10T23:46:32.058Z,4.97
2023-05-10T23:49:12.390Z,5.15
2023-05-10T23:52:12.400Z,4.65
2023-05-10T23:54:53.831Z,4.55
2023-05-10T23:57:40.944Z,4.95
